createdAt,value
2022-11-14T00:01:32.721Z,20.58
2022-11-14T00:04:19.346Z,21.83
2022-11-14T00:07:05.319Z,21.33
2022-11-14T00:09:51.540Z,22.80
2022-11-14T00:12:37.677Z,21.10
2022-11-14T00:15:24.018Z,22.83
2022-11-14T00:18:09.761Z,23.33
2022-11-14T00:20:56.103Z,21.58
2022-11-14T00:23:41.753Z,21.27
2022-11-14T00:26:28.235Z,21.33
2022-11-14T00:29:15.848Z,20.35
2022-11-14T00:32:01.901Z,20.02
2022-11-14T00:34:48.670Z,20.05
2022-11-14T00:37:35.717Z,20.15
2022-11-14T00:40:21.454Z,21.05
2022-11-14T00:43:07.699Z,19.98
2022-11-14T00:45:53.662Z,21.40
2022-11-14T00:48:40.230Z,22.10
2022-11-14T00:51:26.046Z,22.13
2022-11-14T00:54:12.758Z,20.40
2022-11-14T00:56:58.699Z,21.85
2022-11-14T00:59:44.798Z,20.70
2022-11-14T01:02:31.160Z,21.75
2022-11-14T01:05:17.680Z,22.17
2022-11-14T01:08:03.485Z,19.65
2022-11-14T01:10:51.331Z,21.33
2022-11-14T01:13:37.809Z,22.15
2022-11-14T01:16:24.180Z,21.95
2022-11-14T01:19:10.051Z,23.00
2022-11-14T01:21:56.235Z,21.00
2022-11-14T01:24:42.225Z,21.27
2022-11-14T01:27:31.995Z,21.52
2022-11-14T01:30:18.338Z,22.65
2022-11-14T01:33:06.111Z,21.73
2022-11-14T01:35:52.259Z,22.63
2022-11-14T01:38:38.572Z,22.63
2022-11-14T01:41:25.573Z,21.70
2022-11-14T01:44:45.812Z,21.30
2022-11-14T01:47:33.685Z,21.48
2022-11-14T01:50:19.941Z,20.92
2022-11-14T01:53:06.220Z,21.65
2022-11-14T01:55:55.383Z,21.33
2022-11-14T01:58:50.585Z,21.80
2022-11-14T02:01:45.184Z,20.75
2022-11-14T02:04:41.196Z,20.92
2022-11-14T02:07:31.189Z,21.83
2022-11-14T02:10:21.224Z,21.92
2022-11-14T02:13:08.551Z,21.30
2022-11-14T02:15:54.751Z,22.63
2022-11-14T02:18:40.942Z,21.30
2022-11-14T02:21:27.210Z,22.33
2022-11-14T02:24:14.354Z,22.73
2022-11-14T02:27:00.043Z,20.45
2022-11-14T02:29:46.274Z,23.33
2022-11-14T02:32:45.018Z,21.23
2022-11-14T02:35:38.732Z,19.85
2022-11-14T02:38:24.806Z,22.08
2022-11-14T02:41:11.092Z,20.13
2022-11-14T02:43:57.051Z,21.80
2022-11-14T02:46:43.500Z,23.30
2022-11-14T02:49:29.524Z,20.83
2022-11-14T02:52:15.526Z,20.05
2022-11-14T02:55:02.078Z,19.45
2022-11-14T02:57:48.114Z,21.77
2022-11-14T03:00:36.722Z,20.73
2022-11-14T03:03:27.268Z,21.15
2022-11-14T03:06:13.745Z,20.63
2022-11-14T03:09:00.144Z,20.58
2022-11-14T03:11:45.849Z,20.77
2022-11-14T03:14:32.301Z,20.80
2022-11-14T03:17:18.465Z,20.60
2022-11-14T03:20:06.077Z,20.88
2022-11-14T03:22:52.170Z,19.65
2022-11-14T03:25:38.487Z,20.88
2022-11-14T03:28:24.273Z,21.65
2022-11-14T03:31:12.630Z,20.58
2022-11-14T03:33:58.816Z,20.40
2022-11-14T03:36:45.439Z,20.38
2022-11-14T03:39:31.236Z,20.45
2022-11-14T03:42:17.216Z,21.02
2022-11-14T03:45:03.869Z,21.30
2022-11-14T03:47:49.940Z,19.80
2022-11-14T03:50:36.205Z,22.73
2022-11-14T03:53:22.967Z,20.85
2022-11-14T03:56:08.916Z,23.33
2022-11-14T03:58:55.029Z,22.45
2022-11-14T04:01:41.048Z,22.52
2022-11-14T04:04:27.274Z,22.77
2022-11-14T04:07:13.305Z,20.67
2022-11-14T04:09:59.723Z,21.98
2022-11-14T04:12:54.161Z,20.95
2022-11-14T04:15:40.508Z,21.90
2022-11-14T04:18:27.406Z,21.90
2022-11-14T04:21:14.210Z,22.40
2022-11-14T04:24:00.284Z,22.42
2022-11-14T04:26:46.397Z,23.27
2022-11-14T04:29:32.150Z,23.77
2022-11-14T04:32:18.398Z,23.05
2022-11-14T04:35:04.778Z,23.52
2022-11-14T04:37:51.075Z,23.63
2022-11-14T04:40:36.993Z,21.30
2022-11-14T04:43:23.249Z,21.65
2022-11-14T04:46:09.157Z,23.00
2022-11-14T04:48:55.327Z,21.50
2022-11-14T04:51:41.373Z,24.30
2022-11-14T04:54:27.575Z,22.90
2022-11-14T04:57:14.735Z,23.02
2022-11-14T05:00:00.997Z,22.80
2022-11-14T05:02:46.976Z,25.15
2022-11-14T05:05:35.959Z,23.25
2022-11-14T05:08:25.278Z,23.98
2022-11-14T05:11:16.509Z,24.02
2022-11-14T05:14:03.397Z,22.45
2022-11-14T05:16:49.727Z,24.25
2022-11-14T05:19:35.660Z,24.40
2022-11-14T05:22:22.153Z,23.40
2022-11-14T05:25:08.854Z,24.98
2022-11-14T05:27:55.680Z,24.40
2022-11-14T05:30:41.586Z,23.50
2022-11-14T05:33:27.690Z,22.38
2022-11-14T05:36:16.926Z,25.83
2022-11-14T05:39:03.562Z,23.40
2022-11-14T05:41:49.657Z,24.20
2022-11-14T05:44:35.910Z,24.15
2022-11-14T05:47:21.817Z,23.08
2022-11-14T05:50:08.507Z,25.27
2022-11-14T05:52:54.146Z,25.90
2022-11-14T05:55:40.063Z,24.20
2022-11-14T05:58:26.240Z,34.50
2022-11-14T06:01:17.188Z,40.90
2022-11-14T06:04:06.762Z,40.95
2022-11-14T06:06:53.157Z,40.72
2022-11-14T06:09:39.355Z,38.55
2022-11-14T06:12:25.989Z,35.80
2022-11-14T06:15:12.000Z,30.83
2022-11-14T06:17:58.443Z,30.33
2022-11-14T06:20:44.663Z,28.15
2022-11-14T06:23:30.986Z,27.73
2022-11-14T06:26:25.665Z,29.17
2022-11-14T06:29:11.839Z,29.83
2022-11-14T06:31:57.972Z,29.90
2022-11-14T06:34:44.214Z,33.67
2022-11-14T06:37:33.543Z,30.23
2022-11-14T06:40:20.721Z,42.15
2022-11-14T06:43:07.062Z,39.47
2022-11-14T06:45:56.765Z,35.30
2022-11-14T06:48:43.979Z,32.75
2022-11-14T06:51:30.439Z,29.77
2022-11-14T06:54:16.163Z,32.20
2022-11-14T06:57:02.319Z,33.45
2022-11-14T06:59:48.493Z,29.15
2022-11-14T07:02:34.579Z,31.27
2022-11-14T07:05:20.326Z,32.58
2022-11-14T07:08:06.715Z,31.73
2022-11-14T07:10:53.233Z,30.98
2022-11-14T07:13:39.687Z,31.45
2022-11-14T07:16:37.619Z,34.03
2022-11-14T07:19:23.882Z,35.15
2022-11-14T07:22:10.386Z,37.17
2022-11-14T07:24:56.562Z,39.05
2022-11-14T07:27:42.444Z,40.53
2022-11-14T07:30:28.593Z,43.30
2022-11-14T07:33:14.657Z,43.90
2022-11-14T07:36:01.295Z,40.20
2022-11-14T07:38:47.694Z,42.08
2022-11-14T07:41:34.164Z,41.88
2022-11-14T07:44:20.018Z,40.53
2022-11-14T07:47:06.230Z,40.47
2022-11-14T07:49:52.297Z,39.80
2022-11-14T07:52:38.752Z,40.83
2022-11-14T07:55:24.718Z,43.05
2022-11-14T07:58:11.486Z,40.75
2022-11-14T08:01:02.235Z,42.38
2022-11-14T08:03:48.859Z,42.65
2022-11-14T08:06:35.219Z,42.58
2022-11-14T08:09:23.145Z,45.13
2022-11-14T08:12:08.975Z,42.53
2022-11-14T08:14:55.478Z,42.53
2022-11-14T08:17:41.605Z,45.50
2022-11-14T08:20:28.529Z,40.92
2022-11-14T08:23:15.113Z,42.03
2022-11-14T08:26:01.881Z,39.42
2022-11-14T08:28:47.874Z,39.17
2022-11-14T08:31:34.256Z,40.33
2022-11-14T08:34:22.475Z,40.35
2022-11-14T08:37:08.755Z,40.95
2022-11-14T08:39:54.878Z,37.65
2022-11-14T08:42:41.400Z,39.33
2022-11-14T08:45:27.539Z,39.45
2022-11-14T08:48:14.275Z,37.53
2022-11-14T08:51:06.187Z,38.90
2022-11-14T08:53:53.088Z,37.05
2022-11-14T08:56:39.294Z,35.50
2022-11-14T08:59:25.426Z,35.47
2022-11-14T09:02:16.234Z,34.17
2022-11-14T09:05:02.658Z,34.08
2022-11-14T09:07:48.877Z,31.63
2022-11-14T09:10:37.369Z,30.27
2022-11-14T09:13:23.689Z,32.17
2022-11-14T09:16:10.142Z,30.35
2022-11-14T09:18:56.505Z,31.30
2022-11-14T09:21:43.169Z,31.05
2022-11-14T09:24:30.008Z,32.05
2022-11-14T09:27:17.238Z,30.58
2022-11-14T09:30:06.016Z,31.02
2022-11-14T09:32:52.856Z,26.02
2022-11-14T09:35:39.093Z,23.10
2022-11-14T09:38:26.552Z,24.35
2022-11-14T09:41:33.881Z,24.90
2022-11-14T09:44:47.724Z,30.63
2022-11-14T09:47:42.860Z,28.42
2022-11-14T09:50:37.417Z,29.38
2022-11-14T09:53:52.944Z,29.77
2022-11-14T09:56:39.427Z,28.67
2022-11-14T09:59:26.634Z,27.42
2022-11-14T10:03:03.328Z,27.48
2022-11-14T10:06:08.628Z,26.92
2022-11-14T10:09:06.789Z,27.30
2022-11-14T10:12:36.450Z,28.48
2022-11-14T10:15:52.269Z,24.27
2022-11-14T10:19:30.854Z,25.35
2022-11-14T10:22:58.621Z,27.50
2022-11-14T10:26:19.927Z,27.40
2022-11-14T10:29:27.586Z,24.90
2022-11-14T10:32:22.370Z,21.65
2022-11-14T10:35:28.745Z,21.52
2022-11-14T10:39:07.306Z,21.60
2022-11-14T10:42:03.185Z,21.63
2022-11-14T10:45:10.619Z,21.05
2022-11-14T10:48:15.995Z,20.80
2022-11-14T10:51:34.866Z,21.30
2022-11-14T10:55:10.138Z,18.67
2022-11-14T10:57:58.017Z,20.33
2022-11-14T11:00:44.633Z,18.43
2022-11-14T11:03:59.255Z,19.40
2022-11-14T11:06:46.066Z,20.73
2022-11-14T11:09:51.493Z,22.20
2022-11-14T11:12:37.919Z,19.75
2022-11-14T11:15:32.283Z,20.40
2022-11-14T11:18:33.618Z,20.30
2022-11-14T11:21:23.420Z,20.05
2022-11-14T11:24:10.172Z,19.70
2022-11-14T11:27:29.222Z,19.10
2022-11-14T11:30:23.281Z,20.25
2022-11-14T11:33:22.412Z,19.40
2022-11-14T11:36:19.545Z,20.08
2022-11-14T11:39:05.617Z,21.65
2022-11-14T11:42:11.055Z,21.05
2022-11-14T11:45:04.157Z,20.25
2022-11-14T11:48:19.778Z,18.40
2022-11-14T11:51:14.145Z,18.95
2022-11-14T11:54:24.760Z,18.42
2022-11-14T11:57:21.403Z,17.38
2022-11-14T12:00:21.174Z,16.55
2022-11-14T12:03:14.387Z,16.55
2022-11-14T12:06:24.863Z,15.80
2022-11-14T12:09:22.218Z,16.98
2022-11-14T12:12:35.630Z,14.68
2022-11-14T12:16:24.665Z,15.45
2022-11-14T12:19:41.353Z,15.40
2022-11-14T12:22:46.734Z,15.80
2022-11-14T12:26:17.719Z,14.00
2022-11-14T12:29:12.857Z,14.93
2022-11-14T12:32:06.869Z,14.27
2022-11-14T12:34:53.547Z,13.63
2022-11-14T12:37:50.042Z,14.48
2022-11-14T12:40:48.387Z,13.05
2022-11-14T12:43:45.100Z,13.70
2022-11-14T12:47:05.853Z,13.32
2022-11-14T12:49:55.831Z,12.98
2022-11-14T12:52:42.922Z,13.02
2022-11-14T12:55:29.509Z,13.20
2022-11-14T12:58:24.794Z,12.13
2022-11-14T13:01:48.256Z,12.13
2022-11-14T13:04:57.846Z,11.45
2022-11-14T13:07:48.648Z,12.55
2022-11-14T13:10:42.034Z,12.25
2022-11-14T13:13:46.948Z,12.30
2022-11-14T13:16:52.060Z,12.82
2022-11-14T13:20:05.208Z,12.48
2022-11-14T13:22:51.430Z,12.38
2022-11-14T13:25:37.573Z,12.32
2022-11-14T13:28:38.693Z,10.73
2022-11-14T13:31:35.332Z,12.13
2022-11-14T13:34:37.397Z,12.65
2022-11-14T13:37:47.802Z,12.48
2022-11-14T13:41:11.785Z,13.00
2022-11-14T13:44:34.414Z,12.60
2022-11-14T13:48:16.281Z,13.23
2022-11-14T13:51:28.988Z,12.75
2022-11-14T13:54:18.252Z,13.18
2022-11-14T13:57:35.377Z,15.07
2022-11-14T14:00:21.779Z,17.55
2022-11-14T14:03:28.253Z,19.75
2022-11-14T14:07:05.405Z,13.82
2022-11-14T14:10:08.570Z,12.82
2022-11-14T14:13:23.423Z,14.13
2022-11-14T14:17:01.693Z,14.95
2022-11-14T14:20:18.742Z,16.47
2022-11-14T14:54:04.051Z,15.35
2022-11-14T14:57:02.842Z,15.48
2022-11-14T15:00:05.981Z,14.68
2022-11-14T15:02:56.616Z,14.88
2022-11-14T15:05:43.155Z,15.07
2022-11-14T15:08:31.950Z,13.55
2022-11-14T15:11:18.895Z,13.07
2022-11-14T15:14:05.208Z,11.73
2022-11-14T15:16:53.305Z,12.20
2022-11-14T15:19:45.748Z,11.52
2022-11-14T15:22:33.057Z,11.23
2022-11-14T15:25:20.440Z,12.13
2022-11-14T15:28:21.017Z,11.75
2022-11-14T15:31:17.184Z,12.50
2022-11-14T15:34:34.408Z,12.73
2022-11-14T15:37:22.851Z,14.00
2022-11-14T15:40:39.429Z,14.82
2022-11-14T15:43:50.619Z,14.82
2022-11-14T15:46:46.760Z,13.75
2022-11-14T15:49:33.822Z,14.00
2022-11-14T15:52:47.512Z,13.95
2022-11-14T15:55:33.496Z,12.65
2022-11-14T15:58:29.082Z,13.15
2022-11-14T16:01:23.938Z,12.70
2022-11-14T16:04:23.016Z,13.57
2022-11-14T16:07:14.696Z,14.13
2022-11-14T16:10:01.311Z,15.25
2022-11-14T16:12:52.255Z,15.95
2022-11-14T16:15:39.847Z,15.55
2022-11-14T16:18:25.718Z,13.93
2022-11-14T16:21:18.231Z,13.48
2022-11-14T16:24:05.839Z,13.13
2022-11-14T16:26:52.437Z,13.98
2022-11-14T16:29:38.510Z,15.07
2022-11-14T16:32:26.728Z,14.05
2022-11-14T16:35:14.785Z,14.32
2022-11-14T16:38:01.102Z,15.60
2022-11-14T16:40:47.239Z,14.48
2022-11-14T16:43:33.953Z,13.55
2022-11-14T16:46:19.783Z,13.23
2022-11-14T16:49:05.850Z,13.95
2022-11-14T16:51:52.433Z,14.52
2022-11-14T16:54:38.802Z,13.32
2022-11-14T16:57:25.304Z,13.73
2022-11-14T17:00:13.450Z,13.88
2022-11-14T17:02:59.541Z,13.63
2022-11-14T17:05:48.652Z,13.57
2022-11-14T17:08:34.740Z,13.90
2022-11-14T17:11:21.354Z,13.60
2022-11-14T17:14:07.629Z,14.32
2022-11-14T17:16:53.953Z,13.48
2022-11-14T17:19:45.921Z,15.13
2022-11-14T17:22:32.621Z,14.35
2022-11-14T17:25:18.894Z,14.32
2022-11-14T17:28:05.200Z,13.52
2022-11-14T17:30:51.259Z,15.02
2022-11-14T17:33:38.344Z,14.52
2022-11-14T17:36:29.109Z,16.15
2022-11-14T17:39:15.413Z,14.88
2022-11-14T17:42:01.275Z,15.07
2022-11-14T17:44:47.925Z,15.00
2022-11-14T17:47:33.711Z,15.18
2022-11-14T17:50:19.782Z,15.15
2022-11-14T17:53:06.631Z,15.95
2022-11-14T17:56:01.815Z,16.02
2022-11-14T17:58:51.141Z,16.23
2022-11-14T18:01:43.612Z,17.65
2022-11-14T18:04:31.802Z,16.65
2022-11-14T18:07:20.603Z,16.83
2022-11-14T18:10:07.181Z,18.77
2022-11-14T18:12:55.495Z,17.65
2022-11-14T18:15:41.439Z,18.50
2022-11-14T18:18:35.259Z,19.20
2022-11-14T18:21:31.781Z,17.48
2022-11-14T18:24:18.438Z,18.98
2022-11-14T18:27:04.358Z,18.70
2022-11-14T18:29:50.677Z,20.50
2022-11-14T18:32:36.582Z,19.20
2022-11-14T18:35:22.687Z,19.17
2022-11-14T18:38:08.525Z,19.77
2022-11-14T18:40:57.516Z,20.98
2022-11-14T18:43:45.128Z,20.52
2022-11-14T18:46:37.200Z,21.17
2022-11-14T18:49:28.395Z,19.88
2022-11-14T18:52:17.387Z,20.60
2022-11-14T18:55:08.420Z,20.05
2022-11-14T18:57:54.349Z,21.95
2022-11-14T19:00:40.317Z,23.70
2022-11-14T19:03:27.007Z,22.55
2022-11-14T19:06:14.046Z,21.95
2022-11-14T19:09:10.587Z,23.42
2022-11-14T19:12:15.660Z,24.02
2022-11-14T19:15:02.384Z,24.88
2022-11-14T19:17:49.032Z,25.85
2022-11-14T19:20:37.700Z,25.58
2022-11-14T19:23:24.216Z,25.35
2022-11-14T19:26:11.760Z,25.17
2022-11-14T19:29:06.487Z,27.83
2022-11-14T19:31:54.698Z,26.42
2022-11-14T19:34:46.810Z,27.63
2022-11-14T19:37:34.400Z,28.33
2022-11-14T19:40:20.757Z,28.80
2022-11-14T19:43:09.180Z,27.95
2022-11-14T19:46:00.133Z,27.75
2022-11-14T19:48:47.883Z,28.77
2022-11-14T19:51:34.734Z,28.77
2022-11-14T19:54:21.007Z,26.25
2022-11-14T19:57:06.962Z,26.85
2022-11-14T19:59:53.540Z,25.70
2022-11-14T20:02:40.619Z,27.45
2022-11-14T20:05:27.179Z,25.27
2022-11-14T20:08:13.229Z,22.83
2022-11-14T20:11:03.450Z,25.52
2022-11-14T20:13:50.698Z,25.33
2022-11-14T20:16:38.767Z,24.27
2022-11-14T20:19:25.039Z,25.77
2022-11-14T20:22:11.730Z,25.90
2022-11-14T20:24:57.858Z,25.80
2022-11-14T20:27:44.115Z,24.70
2022-11-14T20:30:30.230Z,24.48
2022-11-14T20:33:16.959Z,24.00
2022-11-14T20:36:10.839Z,24.92
2022-11-14T20:38:59.787Z,24.98
2022-11-14T20:41:45.790Z,25.33
2022-11-14T20:44:32.013Z,25.98
2022-11-14T20:47:18.489Z,22.98
2022-11-14T20:50:05.903Z,23.45
2022-11-14T20:52:51.932Z,23.17
2022-11-14T20:55:38.461Z,23.15
2022-11-14T20:58:24.490Z,22.73
2022-11-14T21:01:11.465Z,21.65
2022-11-14T21:03:58.629Z,22.35
2022-11-14T21:06:46.116Z,23.08
2022-11-14T21:09:32.838Z,21.92
2022-11-14T21:12:19.545Z,21.92
2022-11-14T21:15:07.504Z,22.67
2022-11-14T21:17:54.567Z,22.13
2022-11-14T21:20:40.427Z,25.13
2022-11-14T21:23:26.813Z,22.88
2022-11-14T21:26:19.076Z,22.42
2022-11-14T21:29:12.137Z,22.85
2022-11-14T21:32:01.709Z,22.13
2022-11-14T21:34:53.103Z,22.20
2022-11-14T21:37:38.927Z,21.02
2022-11-14T21:40:27.808Z,21.95
2022-11-14T21:43:15.750Z,20.75
2022-11-14T21:46:05.948Z,20.58
2022-11-14T21:48:52.856Z,20.05
2022-11-14T21:51:39.375Z,20.52
2022-11-14T21:54:27.743Z,19.88
2022-11-14T21:57:15.983Z,20.70
2022-11-14T22:00:02.736Z,20.77
2022-11-14T22:06:32.033Z,20.27
2022-11-14T22:10:28.383Z,17.20
2022-11-14T22:13:49.466Z,18.75
2022-11-14T22:17:38.174Z,18.92
2022-11-14T22:25:37.436Z,18.65
2022-11-14T22:28:54.861Z,20.38
2022-11-14T22:31:58.269Z,20.77
2022-11-14T22:35:11.150Z,20.00
2022-11-14T22:39:16.615Z,20.17
2022-11-14T22:43:35.927Z,17.40
2022-11-14T22:46:35.110Z,17.20
2022-11-14T22:49:21.514Z,18.60
2022-11-14T22:52:07.683Z,19.88
2022-11-14T22:54:57.142Z,19.02
2022-11-14T22:57:57.109Z,18.67
2022-11-14T23:01:05.720Z,18.27
2022-11-14T23:04:07.026Z,19.15
2022-11-14T23:06:59.775Z,18.05
2022-11-14T23:10:38.359Z,17.42
2022-11-14T23:14:19.622Z,18.23
2022-11-14T23:17:12.632Z,18.88
2022-11-14T23:20:28.680Z,20.00
2022-11-14T23:23:15.943Z,17.52
2022-11-14T23:26:37.926Z,18.77
2022-11-14T23:29:24.789Z,17.83
2022-11-14T23:32:10.937Z,19.17
2022-11-14T23:34:58.061Z,19.70
2022-11-14T23:38:09.262Z,19.80
2022-11-14T23:41:09.824Z,18.55
2022-11-14T23:44:07.956Z,18.67
2022-11-14T23:47:54.979Z,19.52
2022-11-14T23:50:42.224Z,17.60
2022-11-14T23:53:35.256Z,18.30
2022-11-14T23:56:26.716Z,18.80
2022-11-14T23:59:17.204Z,19.42
